createdAt,value
2023-03-22T00:02:16.575Z,3.80
2023-03-22T00:04:44.665Z,3.82
2023-03-22T00:07:12.856Z,3.83
2023-03-22T00:09:41.042Z,3.86
2023-03-22T00:12:09.193Z,3.90
2023-03-22T00:14:37.256Z,3.94
2023-03-22T00:17:05.335Z,3.96
2023-03-22T00:19:34.319Z,3.96
2023-03-22T00:22:05.778Z,3.97
2023-03-22T00:24:34.058Z,3.97
2023-03-22T00:27:02.046Z,3.95
2023-03-22T00:29:30.748Z,3.96
2023-03-22T00:31:58.796Z,4.02
2023-03-22T00:34:31.688Z,4.11
2023-03-22T00:36:59.820Z,4.17
2023-03-22T00:39:28.240Z,4.25
2023-03-22T00:41:56.392Z,4.35
2023-03-22T00:44:24.678Z,4.45
2023-03-22T00:46:53.047Z,4.48
2023-03-22T00:49:22.055Z,4.45
2023-03-22T00:51:50.417Z,4.43
2023-03-22T00:54:19.210Z,4.41
2023-03-22T00:56:47.591Z,4.40
2023-03-22T00:59:17.308Z,4.50
2023-03-22T01:01:45.451Z,4.67
2023-03-22T01:04:18.270Z,4.82
2023-03-22T01:06:47.335Z,4.90
2023-03-22T01:09:15.825Z,4.91
2023-03-22T01:11:45.844Z,4.90
2023-03-22T01:14:14.151Z,4.90
2023-03-22T01:16:42.567Z,4.94
2023-03-22T01:19:10.969Z,4.94
2023-03-22T01:21:39.868Z,4.93
2023-03-22T01:24:08.486Z,4.92
2023-03-22T01:26:37.989Z,5.00
2023-03-22T01:29:06.442Z,5.00
2023-03-22T01:31:35.122Z,4.92
2023-03-22T01:34:04.116Z,4.87
2023-03-22T01:36:32.816Z,4.87
2023-03-22T01:39:00.917Z,4.86
2023-03-22T01:41:29.277Z,4.84
2023-03-22T01:44:13.722Z,4.82
2023-03-22T01:46:42.486Z,4.79
2023-03-22T01:49:23.691Z,4.73
2023-03-22T01:51:55.325Z,4.70
2023-03-22T01:54:52.808Z,4.68
2023-03-22T01:57:41.458Z,4.62
2023-03-22T02:00:16.109Z,4.56
2023-03-22T02:03:04.537Z,4.54
2023-03-22T02:05:37.802Z,4.55
2023-03-22T02:08:09.701Z,4.51
2023-03-22T02:10:52.255Z,4.48
2023-03-22T02:13:42.723Z,4.47
2023-03-22T02:16:44.229Z,4.52
2023-03-22T02:19:29.510Z,4.55
2023-03-22T02:22:43.759Z,4.56
2023-03-22T02:25:35.483Z,4.62
2023-03-22T02:28:06.827Z,4.72
2023-03-22T02:31:12.580Z,4.74
2023-03-22T02:34:15.837Z,4.82
2023-03-22T02:36:53.985Z,4.84
2023-03-22T02:40:08.899Z,4.84
2023-03-22T02:42:40.003Z,4.86
2023-03-22T02:45:08.395Z,4.91
2023-03-22T02:47:44.861Z,4.87
2023-03-22T02:50:28.812Z,4.79
2023-03-22T02:53:09.991Z,4.75
2023-03-22T02:55:40.487Z,4.76
2023-03-22T02:58:40.617Z,4.73
2023-03-22T03:01:35.649Z,4.69
2023-03-22T03:04:09.747Z,4.70
2023-03-22T03:06:46.453Z,4.61
2023-03-22T03:09:20.533Z,4.51
2023-03-22T03:11:51.456Z,4.42
2023-03-22T03:14:28.498Z,4.32
2023-03-22T03:17:18.014Z,4.23
2023-03-22T03:20:17.012Z,4.05
2023-03-22T03:23:31.468Z,3.97
2023-03-22T03:26:49.947Z,3.87
2023-03-22T03:29:37.235Z,3.75
2023-03-22T03:32:19.654Z,3.69
2023-03-22T03:34:55.753Z,3.65
2023-03-22T03:37:31.173Z,3.61
2023-03-22T03:40:11.096Z,3.57
2023-03-22T03:42:46.312Z,3.48
2023-03-22T03:45:16.360Z,3.40
2023-03-22T03:47:55.643Z,3.33
2023-03-22T03:50:25.924Z,3.28
2023-03-22T03:52:56.261Z,3.27
2023-03-22T03:55:25.995Z,3.32
2023-03-22T03:57:54.538Z,3.34
2023-03-22T04:00:22.910Z,3.34
2023-03-22T04:03:11.359Z,3.42
2023-03-22T04:05:52.754Z,3.52
2023-03-22T04:08:20.913Z,3.57
2023-03-22T04:10:52.001Z,3.58
2023-03-22T04:13:21.780Z,3.57
2023-03-22T04:15:58.265Z,3.56
2023-03-22T04:18:29.898Z,3.59
2023-03-22T04:20:59.105Z,3.62
2023-03-22T04:23:28.079Z,3.62
2023-03-22T04:25:59.732Z,3.64
2023-03-22T04:28:36.592Z,3.65
2023-03-22T04:31:04.786Z,3.62
2023-03-22T04:33:55.167Z,3.64
2023-03-22T04:36:50.999Z,3.68
2023-03-22T04:39:32.076Z,3.66
2023-03-22T04:42:29.845Z,3.59
2023-03-22T04:45:06.651Z,3.61
2023-03-22T04:47:36.112Z,3.58
2023-03-22T04:50:08.181Z,3.48
2023-03-22T04:52:42.606Z,3.39
2023-03-22T04:55:10.981Z,3.38
2023-03-22T04:57:39.250Z,3.38
2023-03-22T05:00:08.785Z,3.36
2023-03-22T05:02:41.144Z,3.38
2023-03-22T05:05:11.964Z,3.35
2023-03-22T05:07:41.685Z,3.29
2023-03-22T05:10:11.168Z,3.25
2023-03-22T05:12:39.864Z,3.13
2023-03-22T05:15:24.624Z,2.99
2023-03-22T05:17:53.625Z,2.92
2023-03-22T05:20:21.816Z,2.86
2023-03-22T05:22:57.961Z,2.88
2023-03-22T05:25:27.214Z,2.95
2023-03-22T05:27:55.337Z,3.01
2023-03-22T05:30:44.598Z,3.04
2023-03-22T05:33:22.933Z,3.02
2023-03-22T05:35:54.307Z,3.06
2023-03-22T05:38:23.247Z,3.10
2023-03-22T05:40:52.959Z,3.09
2023-03-22T05:43:21.445Z,3.15
2023-03-22T05:45:51.307Z,3.32
2023-03-22T05:48:33.563Z,3.55
2023-03-22T05:51:03.634Z,3.74
2023-03-22T05:53:33.303Z,3.89
2023-03-22T05:56:18.068Z,4.10
2023-03-22T05:58:47.049Z,4.29
2023-03-22T06:01:17.298Z,4.43
2023-03-22T06:03:49.438Z,4.53
2023-03-22T06:06:28.295Z,4.66
2023-03-22T06:09:18.088Z,4.84
2023-03-22T06:11:50.235Z,4.98
2023-03-22T06:14:18.484Z,5.05
2023-03-22T06:17:01.195Z,5.12
2023-03-22T06:19:29.566Z,5.24
2023-03-22T06:21:58.003Z,5.43
2023-03-22T06:24:27.360Z,5.61
2023-03-22T06:26:56.031Z,5.75
2023-03-22T06:29:24.721Z,5.89
2023-03-22T06:31:54.842Z,6.03
2023-03-22T06:34:23.113Z,6.14
2023-03-22T06:36:51.181Z,6.21
2023-03-22T06:39:29.511Z,6.29
2023-03-22T06:41:57.666Z,6.37
2023-03-22T06:44:26.677Z,6.43
2023-03-22T06:47:05.459Z,6.52
2023-03-22T06:49:59.768Z,6.63
2023-03-22T06:52:38.839Z,6.74
2023-03-22T06:55:07.479Z,6.84
2023-03-22T06:57:35.960Z,6.94
2023-03-22T07:00:05.437Z,7.05
2023-03-22T07:02:33.944Z,7.15
2023-03-22T07:05:14.753Z,7.27
2023-03-22T07:07:42.916Z,7.39
2023-03-22T07:10:11.375Z,7.50
2023-03-22T07:12:39.901Z,7.62
2023-03-22T07:15:12.135Z,7.75
2023-03-22T07:17:53.320Z,7.89
2023-03-22T07:20:21.993Z,8.03
2023-03-22T07:22:51.682Z,8.17
2023-03-22T07:25:21.118Z,8.33
2023-03-22T07:27:50.905Z,8.48
2023-03-22T07:30:19.728Z,8.62
2023-03-22T07:32:48.597Z,8.74
2023-03-22T07:35:17.078Z,8.88
2023-03-22T07:37:45.949Z,9.02
2023-03-22T07:40:24.174Z,9.19
2023-03-22T07:42:54.827Z,9.34
2023-03-22T07:45:59.528Z,9.56
2023-03-22T07:48:45.876Z,9.79
2023-03-22T07:51:52.025Z,10.04
2023-03-22T07:54:33.009Z,10.19
2023-03-22T07:57:03.194Z,10.39
2023-03-22T07:59:32.285Z,10.56
2023-03-22T08:02:00.688Z,10.72
2023-03-22T08:04:32.637Z,10.88
2023-03-22T08:07:14.019Z,11.02
2023-03-22T08:09:42.908Z,11.16
2023-03-22T08:12:12.446Z,11.26
2023-03-22T08:14:40.888Z,11.40
2023-03-22T08:17:14.791Z,11.53
2023-03-22T08:19:43.308Z,11.60
2023-03-22T08:22:13.790Z,11.70
2023-03-22T08:25:18.092Z,11.83
2023-03-22T08:27:46.394Z,11.95
2023-03-22T08:30:15.910Z,12.06
2023-03-22T08:32:44.514Z,12.12
2023-03-22T08:35:12.759Z,12.20
2023-03-22T08:37:41.745Z,12.29
2023-03-22T08:40:12.264Z,12.45
2023-03-22T08:42:52.961Z,12.61
2023-03-22T08:45:24.296Z,12.71
2023-03-22T08:48:00.246Z,12.85
2023-03-22T08:50:28.558Z,12.93
2023-03-22T08:53:06.071Z,12.96
2023-03-22T08:55:37.722Z,13.04
2023-03-22T08:58:13.625Z,13.12
2023-03-22T09:00:56.393Z,13.26
2023-03-22T09:03:45.065Z,13.42
2023-03-22T09:06:14.880Z,13.57
2023-03-22T09:08:43.503Z,13.64
2023-03-22T09:11:16.654Z,13.72
2023-03-22T09:13:48.668Z,13.79
2023-03-22T09:16:17.761Z,13.95
2023-03-22T09:18:47.117Z,14.06
2023-03-22T09:21:19.407Z,14.02
2023-03-22T09:23:52.299Z,14.01
2023-03-22T09:26:24.482Z,13.87
2023-03-22T09:28:53.754Z,13.80
2023-03-22T09:31:22.401Z,13.91
2023-03-22T09:33:59.263Z,14.16
2023-03-22T09:36:28.143Z,14.39
2023-03-22T09:38:56.800Z,14.52
2023-03-22T09:41:39.836Z,14.65
2023-03-22T09:44:38.092Z,14.94
2023-03-22T09:47:15.944Z,15.18
2023-03-22T09:49:53.688Z,15.28
2023-03-22T09:52:22.869Z,15.49
2023-03-22T09:54:53.143Z,15.81
2023-03-22T09:57:29.565Z,16.11
2023-03-22T10:00:12.713Z,16.35
2023-03-22T10:02:40.814Z,16.45
2023-03-22T10:05:31.381Z,16.49
2023-03-22T10:08:14.709Z,16.55
2023-03-22T10:10:43.404Z,16.55
2023-03-22T10:13:18.230Z,16.72
2023-03-22T10:15:52.476Z,16.77
2023-03-22T10:18:24.976Z,16.71
2023-03-22T10:21:03.439Z,16.44
2023-03-22T10:24:10.111Z,16.36
2023-03-22T10:26:45.372Z,16.15
2023-03-22T10:29:26.056Z,15.66
2023-03-22T10:31:55.298Z,15.28
2023-03-22T10:34:31.469Z,15.14
2023-03-22T10:37:04.448Z,15.01
2023-03-22T10:39:39.891Z,14.85
2023-03-22T10:42:15.722Z,14.63
2023-03-22T10:45:00.854Z,14.47
2023-03-22T10:47:44.674Z,14.31
2023-03-22T10:50:28.786Z,14.15
2023-03-22T10:53:08.349Z,13.95
2023-03-22T10:55:42.359Z,13.87
2023-03-22T10:58:17.201Z,13.84
2023-03-22T11:00:52.554Z,13.80
2023-03-22T11:03:34.874Z,13.79
2023-03-22T11:06:11.140Z,13.78
2023-03-22T11:08:51.197Z,13.77
2023-03-22T11:11:28.573Z,13.75
2023-03-22T11:14:01.849Z,13.75
2023-03-22T11:16:31.690Z,13.78
2023-03-22T11:19:02.391Z,13.85
2023-03-22T11:21:33.466Z,14.08
2023-03-22T11:24:05.874Z,14.58
2023-03-22T11:26:40.531Z,15.54
2023-03-22T11:29:18.369Z,16.52
2023-03-22T11:31:49.783Z,17.41
2023-03-22T11:34:20.216Z,18.21
2023-03-22T11:36:56.903Z,18.95
2023-03-22T11:39:29.009Z,19.48
2023-03-22T11:42:04.027Z,20.08
2023-03-22T11:44:36.002Z,20.46
2023-03-22T11:47:04.871Z,20.23
2023-03-22T11:49:46.725Z,20.10
2023-03-22T11:52:22.947Z,19.69
2023-03-22T11:54:51.884Z,19.01
2023-03-22T11:57:26.500Z,18.52
2023-03-22T12:00:12.247Z,18.19
2023-03-22T12:02:55.281Z,17.81
2023-03-22T12:05:28.519Z,17.32
2023-03-22T12:08:00.772Z,17.00
2023-03-22T12:10:38.722Z,16.66
2023-03-22T12:13:32.460Z,16.39
2023-03-22T12:16:05.088Z,16.16
2023-03-22T12:19:02.917Z,15.87
2023-03-22T12:21:32.329Z,15.56
2023-03-22T12:24:03.599Z,15.38
2023-03-22T12:26:33.814Z,15.17
2023-03-22T12:29:18.428Z,14.94
2023-03-22T12:32:16.135Z,14.79
2023-03-22T12:34:52.540Z,14.54
2023-03-22T12:37:34.668Z,14.38
2023-03-22T12:40:34.764Z,14.22
2023-03-22T12:43:14.045Z,14.14
2023-03-22T12:45:59.329Z,14.10
2023-03-22T12:49:01.232Z,14.00
2023-03-22T12:51:29.518Z,13.95
2023-03-22T12:53:59.720Z,13.89
2023-03-22T12:56:37.703Z,13.87
2023-03-22T12:59:16.851Z,13.86
2023-03-22T13:02:05.228Z,13.84
2023-03-22T13:04:49.677Z,13.89
2023-03-22T13:07:20.577Z,13.91
2023-03-22T13:09:51.762Z,13.93
2023-03-22T13:12:19.833Z,13.92
2023-03-22T13:14:56.971Z,13.89
2023-03-22T13:17:25.508Z,13.85
2023-03-22T13:19:55.543Z,13.84
2023-03-22T13:22:49.906Z,13.84
2023-03-22T13:25:19.179Z,13.88
2023-03-22T13:28:28.071Z,13.89
2023-03-22T13:30:58.310Z,13.88
2023-03-22T13:33:31.539Z,13.88
2023-03-22T13:36:01.808Z,13.91
2023-03-22T13:38:34.615Z,13.91
2023-03-22T13:41:07.453Z,13.95
2023-03-22T13:43:46.919Z,14.00
2023-03-22T13:46:17.989Z,14.06
2023-03-22T13:48:57.060Z,14.20
2023-03-22T13:51:32.114Z,14.75
2023-03-22T13:54:13.463Z,15.71
2023-03-22T13:56:47.875Z,17.04
2023-03-22T13:59:27.378Z,18.26
2023-03-22T14:02:05.200Z,19.19
2023-03-22T14:04:45.793Z,19.89
2023-03-22T14:07:49.501Z,20.61
2023-03-22T14:10:44.993Z,21.56
2023-03-22T14:13:35.491Z,22.51
2023-03-22T14:16:09.340Z,23.09
2023-03-22T14:18:42.670Z,23.33
2023-03-22T14:21:18.975Z,23.09
